createdAt,value
2022-10-04T00:03:07.645Z,0
2022-10-04T00:08:30.214Z,0
2022-10-04T00:13:52.714Z,0
2022-10-04T00:19:15.289Z,0
2022-10-04T00:40:45.039Z,2
2022-10-04T00:46:08.069Z,0
2022-10-04T00:51:30.672Z,2
2022-10-04T00:57:04.411Z,0
2022-10-04T01:02:27.507Z,0
2022-10-04T01:07:50.119Z,0
2022-10-04T01:13:16.340Z,0
2022-10-04T01:18:39.179Z,0
2022-10-04T01:24:22.548Z,0
2022-10-04T01:29:44.828Z,0
2022-10-04T01:35:07.024Z,0
2022-10-04T01:40:30.642Z,0
2022-10-04T01:45:52.693Z,0
2022-10-04T01:51:15.414Z,0
2022-10-04T01:56:38.317Z,0
2022-10-04T02:02:10.218Z,0
2022-10-04T02:07:33.014Z,0
2022-10-04T02:12:55.303Z,0
2022-10-04T02:18:17.547Z,0
2022-10-04T02:34:48.236Z,0
2022-10-04T02:40:11.153Z,3
2022-10-04T02:45:33.391Z,0
2022-10-04T02:50:55.745Z,0
2022-10-04T02:56:18.362Z,0
2022-10-04T03:01:41.706Z,3
2022-10-04T03:07:05.061Z,0
2022-10-04T03:12:27.721Z,3
2022-10-04T03:17:49.950Z,0
2022-10-04T03:23:12.328Z,0
2022-10-04T03:28:35.701Z,0
2022-10-04T03:34:01.075Z,0
2022-10-04T03:39:23.858Z,0
2022-10-04T03:44:46.770Z,0
2022-10-04T03:50:11.557Z,0
2022-10-04T03:55:33.749Z,0
2022-10-04T04:00:56.812Z,0
2022-10-04T04:06:19.471Z,0
2022-10-04T04:11:42.628Z,0
2022-10-04T04:28:00.551Z,0
2022-10-04T04:33:23.115Z,0
2022-10-04T04:38:45.701Z,0
2022-10-04T04:44:17.230Z,0
2022-10-04T04:49:40.106Z,0
2022-10-04T04:55:02.541Z,0
2022-10-04T05:00:25.666Z,3
2022-10-04T05:05:48.148Z,0
2022-10-04T05:11:10.464Z,0
2022-10-04T05:16:33.452Z,0
2022-10-04T05:21:56.041Z,0
2022-10-04T05:27:18.591Z,1
2022-10-04T05:32:44.384Z,7
2022-10-04T05:43:36.615Z,23
2022-10-04T05:48:59.114Z,31.2
2022-10-04T05:54:25.038Z,36.3
2022-10-04T05:59:47.440Z,41.6
2022-10-04T06:05:10.033Z,56.4
2022-10-04T06:21:22.642Z,121.1
2022-10-04T06:26:45.145Z,149.7
2022-10-04T06:32:07.566Z,190.3
2022-10-04T06:37:32.994Z,227.7
2022-10-04T06:42:55.631Z,285.4
2022-10-04T06:48:18.439Z,326.7
2022-10-04T06:59:09.391Z,274
2022-10-04T07:05:09.238Z,229.2
2022-10-04T07:10:39.793Z,310
2022-10-04T07:16:02.949Z,364.1
2022-10-04T07:21:25.853Z,364.2
2022-10-04T07:26:48.501Z,724.9
2022-10-04T07:32:11.588Z,431.3
2022-10-04T07:37:34.478Z,542.6
2022-10-04T07:43:00.523Z,738
2022-10-04T07:53:49.440Z,753
2022-10-04T07:59:12.140Z,761.6
2022-10-04T08:04:34.467Z,471.2
2022-10-04T08:20:45.978Z,2299.8
2022-10-04T08:26:09.597Z,2381.8
2022-10-04T08:31:32.704Z,1309.8
2022-10-04T08:36:56.328Z,2429.4
2022-10-04T08:42:22.668Z,2229.7
2022-10-04T08:47:49.392Z,2302.3
2022-10-04T08:53:12.186Z,2160.1
2022-10-04T08:58:35.311Z,1193.1
2022-10-04T09:03:58.069Z,1221.5
2022-10-04T09:09:21.013Z,2092.4
2022-10-04T09:14:43.873Z,2365.4
2022-10-04T09:20:39.930Z,2501.7
2022-10-04T09:26:03.036Z,2920.2
2022-10-04T09:36:52.041Z,2955.8
2022-10-04T09:42:14.774Z,3157.8
2022-10-04T09:47:38.626Z,2978.8
2022-10-04T09:53:01.974Z,2745.5
2022-10-04T09:58:24.857Z,2775.6
2022-10-04T10:03:50.563Z,3221.9
2022-10-04T10:09:15.583Z,3164.6
2022-10-04T10:20:15.586Z,3011.6
2022-10-04T10:31:03.977Z,2763.3
2022-10-04T10:36:27.219Z,2910.6
2022-10-04T10:41:50.094Z,2972.5
2022-10-04T10:47:21.800Z,2774.9
2022-10-04T10:52:44.567Z,2111.3
2022-10-04T10:58:12.170Z,2815
2022-10-04T11:03:38.789Z,2770.3
2022-10-04T11:09:02.494Z,2935.6
2022-10-04T11:14:26.048Z,3178.6
2022-10-04T11:19:48.976Z,3273.7
2022-10-04T11:25:14.403Z,3193.5
2022-10-04T11:30:37.273Z,2359.1
2022-10-04T11:35:59.364Z,4098.1
2022-10-04T11:41:21.372Z,1601.7
2022-10-04T11:46:50.651Z,3437.6
2022-10-04T11:52:16.319Z,3795.2
2022-10-04T12:08:24.226Z,4019.2
2022-10-04T12:13:47.720Z,3610
2022-10-04T12:19:12.099Z,3533.5
2022-10-04T12:24:34.637Z,3242.7
2022-10-04T12:29:57.075Z,3389.3
2022-10-04T12:35:22.977Z,2912.2
2022-10-04T12:40:45.681Z,3257.8
2022-10-04T12:46:08.728Z,2747.8
2022-10-04T12:51:49.045Z,2876.6
2022-10-04T12:57:11.774Z,2984
2022-10-04T13:02:34.801Z,2865.2
2022-10-04T13:07:57.515Z,2818.6
2022-10-04T13:13:33.591Z,2707
2022-10-04T13:18:55.886Z,2715.4
2022-10-04T13:24:27.484Z,2554.7
2022-10-04T13:29:58.042Z,2565.3
2022-10-04T13:46:10.589Z,2300
2022-10-04T13:51:33.407Z,2111
2022-10-04T13:56:56.017Z,2178.8
2022-10-04T14:02:18.863Z,1752.4
2022-10-04T14:13:14.424Z,2211
2022-10-04T14:18:36.852Z,2030.4
2022-10-04T14:23:59.211Z,1943.1
2022-10-04T14:29:21.706Z,1783.6
2022-10-04T14:34:44.209Z,1786.6
2022-10-04T14:40:05.836Z,1616.6
2022-10-04T14:45:28.538Z,1442.4
2022-10-04T14:50:57.251Z,1229
2022-10-04T14:56:18.727Z,480.2
2022-10-04T15:07:02.279Z,226.1
2022-10-04T15:13:12.018Z,227.5
2022-10-04T15:24:00.259Z,286.8
2022-10-04T15:29:23.329Z,289.9
2022-10-04T15:34:46.024Z,281.8
2022-10-04T15:40:10.666Z,220.4
2022-10-04T15:45:33.316Z,210.9
2022-10-04T15:50:55.939Z,190.2
2022-10-04T15:56:18.422Z,172
2022-10-04T16:01:43.938Z,149.6
2022-10-04T16:07:06.434Z,120.1
2022-10-04T16:12:32.207Z,93.8
2022-10-04T16:17:54.560Z,73.8
2022-10-04T16:23:17.023Z,64.6
2022-10-04T16:28:40.155Z,57.5
2022-10-04T16:34:02.828Z,54.4
2022-10-04T16:39:42.823Z,48.3
2022-10-04T16:45:05.663Z,38.7
2022-10-04T16:50:28.077Z,38.3
2022-10-04T16:55:52.697Z,35.3
2022-10-04T17:06:37.926Z,15
2022-10-04T17:12:00.395Z,9
2022-10-04T17:17:22.799Z,2
2022-10-04T17:22:45.423Z,0
2022-10-04T17:28:08.293Z,0
2022-10-04T17:33:31.158Z,0
2022-10-04T17:38:53.506Z,0
2022-10-04T17:44:16.515Z,0
2022-10-04T17:49:41.255Z,0
2022-10-04T17:55:05.315Z,0
2022-10-04T18:00:27.477Z,0
2022-10-04T18:05:50.266Z,0
2022-10-04T18:11:19.980Z,0
2022-10-04T18:16:43.271Z,0
2022-10-04T18:22:06.157Z,0
2022-10-04T18:27:28.555Z,0
2022-10-04T18:32:51.266Z,0
2022-10-04T18:38:13.457Z,0
2022-10-04T18:49:13.140Z,0
2022-10-04T18:54:36.220Z,0
2022-10-04T18:59:58.512Z,0
2022-10-04T19:05:21.056Z,0
2022-10-04T19:10:43.494Z,0
2022-10-04T19:16:06.486Z,0
2022-10-04T19:21:29.461Z,0
2022-10-04T19:26:52.621Z,0
2022-10-04T19:32:16.076Z,0
2022-10-04T19:37:38.603Z,0
2022-10-04T19:43:01.330Z,0
2022-10-04T19:48:25.065Z,0
2022-10-04T19:53:50.449Z,0
2022-10-04T19:59:13.066Z,0
2022-10-04T20:04:37.397Z,0
2022-10-04T20:10:00.047Z,0
2022-10-04T20:15:28.114Z,0
2022-10-04T20:20:50.623Z,0
2022-10-04T20:26:14.828Z,0
2022-10-04T20:42:26.647Z,0
2022-10-04T20:47:49.176Z,0
2022-10-04T20:53:11.539Z,0
2022-10-04T20:58:33.999Z,0
2022-10-04T21:03:57.200Z,0
2022-10-04T21:09:19.674Z,0
2022-10-04T21:14:42.380Z,0
2022-10-04T21:20:04.813Z,0
2022-10-04T21:25:27.450Z,0
2022-10-04T21:30:53.126Z,0
2022-10-04T21:36:17.970Z,0
2022-10-04T21:41:40.358Z,0
2022-10-04T21:47:02.513Z,0
2022-10-04T21:52:25.279Z,0
2022-10-04T21:57:48.104Z,0
2022-10-04T22:03:10.927Z,0
2022-10-04T22:08:50.792Z,0
2022-10-04T22:14:13.554Z,0
2022-10-04T22:30:21.306Z,0
2022-10-04T22:35:43.699Z,0
2022-10-04T22:41:06.509Z,0
2022-10-04T22:46:34.938Z,0
2022-10-04T22:51:57.585Z,0
2022-10-04T22:57:20.170Z,0
2022-10-04T23:08:07.864Z,0
2022-10-04T23:13:31.643Z,0
2022-10-04T23:18:54.066Z,0
2022-10-04T23:24:16.422Z,0
2022-10-04T23:29:38.738Z,0
2022-10-04T23:35:01.154Z,0
2022-10-04T23:40:23.743Z,0
2022-10-04T23:45:46.209Z,0
2022-10-04T23:51:08.694Z,0
2022-10-04T23:56:33.210Z,0
